sensor_id;sensor_type;location;lat;lon;timestamp;P1;durP1;ratioP1;P2;durP2;ratioP2
68910;SDS011;55953;51.650;-0.522;2023-03-04T00:00:05;7.60;;;1.50;;
68910;SDS011;55953;51.650;-0.522;2023-03-04T00:02:56;6.90;;;1.50;;
68910;SDS011;55953;51.650;-0.522;2023-03-04T00:05:24;5.30;;;1.00;;
68910;SDS011;55953;51.650;-0.522;2023-03-04T00:07:52;7.90;;;1.30;;
68910;SDS011;55953;51.650;-0.522;2023-03-04T00:10:20;6.90;;;1.50;;
68910;SDS011;55953;51.650;-0.522;2023-03-04T00:12:47;6.10;;;1.30;;
68910;SDS011;55953;51.650;-0.522;2023-03-04T00:15:15;6.30;;;1.40;;
68910;SDS011;55953;51.650;-0.522;2023-03-04T00:17:43;10.80;;;2.30;;
68910;SDS011;55953;51.650;-0.522;2023-03-04T00:20:13;7.00;;;1.40;;
68910;SDS011;55953;51.650;-0.522;2023-03-04T00:22:41;8.00;;;1.70;;
68910;SDS011;55953;51.650;-0.522;2023-03-04T00:25:09;6.80;;;1.70;;
68910;SDS011;55953;51.650;-0.522;2023-03-04T00:27:37;7.70;;;1.50;;
68910;SDS011;55953;51.650;-0.522;2023-03-04T00:30:06;5.60;;;2.00;;
68910;SDS011;55953;51.650;-0.522;2023-03-04T00:32:35;3.90;;;1.30;;
68910;SDS011;55953;51.650;-0.522;2023-03-04T00:35:05;5.50;;;1.60;;
68910;SDS011;55953;51.650;-0.522;2023-03-04T00:37:34;7.00;;;1.10;;
68910;SDS011;55953;51.650;-0.522;2023-03-04T00:40:02;5.70;;;1.30;;
68910;SDS011;55953;51.650;-0.522;2023-03-04T00:42:30;7.00;;;1.20;;
68910;SDS011;55953;51.650;-0.522;2023-03-04T00:44:58;4.20;;;1.30;;
68910;SDS011;55953;51.650;-0.522;2023-03-04T00:47:26;5.30;;;1.00;;
68910;SDS011;55953;51.650;-0.522;2023-03-04T00:49:53;5.30;;;1.40;;
68910;SDS011;55953;51.650;-0.522;2023-03-04T00:52:21;5.30;;;1.10;;
68910;SDS011;55953;51.650;-0.522;2023-03-04T00:54:49;6.10;;;1.30;;
68910;SDS011;55953;51.650;-0.522;2023-03-04T00:57:17;4.30;;;1.00;;
68910;SDS011;55953;51.650;-0.522;2023-03-04T00:59:45;6.00;;;1.20;;
68910;SDS011;55953;51.650;-0.522;2023-03-04T01:02:13;5.20;;;1.10;;
68910;SDS011;55953;51.650;-0.522;2023-03-04T01:04:41;6.00;;;1.00;;
68910;SDS011;55953;51.650;-0.522;2023-03-04T01:07:09;8.00;;;1.00;;
68910;SDS011;55953;51.650;-0.522;2023-03-04T01:09:38;6.40;;;1.00;;
68910;SDS011;55953;51.650;-0.522;2023-03-04T01:12:06;6.10;;;1.20;;
68910;SDS011;55953;51.650;-0.522;2023-03-04T01:14:34;5.40;;;1.10;;
68910;SDS011;55953;51.650;-0.522;2023-03-04T01:17:02;4.80;;;1.10;;
68910;SDS011;55953;51.650;-0.522;2023-03-04T01:19:30;4.50;;;1.00;;
68910;SDS011;55953;51.650;-0.522;2023-03-04T01:21:59;6.70;;;1.40;;
68910;SDS011;55953;51.650;-0.522;2023-03-04T01:24:27;7.40;;;1.20;;
68910;SDS011;55953;51.650;-0.522;2023-03-04T01:26:56;6.70;;;1.20;;
68910;SDS011;55953;51.650;-0.522;2023-03-04T01:29:24;5.70;;;1.10;;
68910;SDS011;55953;51.650;-0.522;2023-03-04T01:31:52;5.10;;;1.20;;
68910;SDS011;55953;51.650;-0.522;2023-03-04T01:34:20;5.00;;;1.00;;
68910;SDS011;55953;51.650;-0.522;2023-03-04T01:36:47;7.00;;;1.30;;
68910;SDS011;55953;51.650;-0.522;2023-03-04T01:39:16;4.90;;;1.30;;
68910;SDS011;55953;51.650;-0.522;2023-03-04T01:41:44;5.20;;;1.40;;
68910;SDS011;55953;51.650;-0.522;2023-03-04T01:44:13;6.20;;;1.40;;
68910;SDS011;55953;51.650;-0.522;2023-03-04T01:46:46;5.90;;;1.80;;
68910;SDS011;55953;51.650;-0.522;2023-03-04T01:49:17;8.00;;;1.60;;
68910;SDS011;55953;51.650;-0.522;2023-03-04T01:51:51;9.30;;;1.60;;
68910;SDS011;55953;51.650;-0.522;2023-03-04T01:54:21;5.80;;;1.30;;
68910;SDS011;55953;51.650;-0.522;2023-03-04T01:56:50;8.90;;;1.80;;
68910;SDS011;55953;51.650;-0.522;2023-03-04T01:59:24;7.70;;;1.80;;
68910;SDS011;55953;51.650;-0.522;2023-03-04T02:01:58;7.20;;;1.60;;
68910;SDS011;55953;51.650;-0.522;2023-03-04T02:04:30;5.30;;;1.20;;
68910;SDS011;55953;51.650;-0.522;2023-03-04T02:07:02;5.90;;;1.30;;
68910;SDS011;55953;51.650;-0.522;2023-03-04T02:09:32;7.20;;;1.50;;
68910;SDS011;55953;51.650;-0.522;2023-03-04T02:12:00;3.60;;;1.20;;
68910;SDS011;55953;51.650;-0.522;2023-03-04T02:14:28;4.40;;;1.40;;
68910;SDS011;55953;51.650;-0.522;2023-03-04T02:16:56;6.80;;;1.60;;
68910;SDS011;55953;51.650;-0.522;2023-03-04T02:19:41;5.10;;;1.20;;
68910;SDS011;55953;51.650;-0.522;2023-03-04T02:22:17;4.90;;;1.20;;
68910;SDS011;55953;51.650;-0.522;2023-03-04T02:24:49;7.20;;;1.60;;
68910;SDS011;55953;51.650;-0.522;2023-03-04T02:27:21;4.60;;;1.30;;
68910;SDS011;55953;51.650;-0.522;2023-03-04T02:29:49;5.50;;;1.40;;
68910;SDS011;55953;51.650;-0.522;2023-03-04T02:32:17;7.40;;;1.50;;
68910;SDS011;55953;51.650;-0.522;2023-03-04T02:34:47;7.30;;;1.40;;
68910;SDS011;55953;51.650;-0.522;2023-03-04T02:37:18;5.70;;;1.20;;
68910;SDS011;55953;51.650;-0.522;2023-03-04T02:39:48;6.10;;;1.20;;
68910;SDS011;55953;51.650;-0.522;2023-03-04T02:42:16;7.60;;;1.70;;
68910;SDS011;55953;51.650;-0.522;2023-03-04T02:44:46;5.90;;;1.30;;
68910;SDS011;55953;51.650;-0.522;2023-03-04T02:47:17;6.00;;;1.30;;
68910;SDS011;55953;51.650;-0.522;2023-03-04T02:49:46;8.10;;;1.50;;
68910;SDS011;55953;51.650;-0.522;2023-03-04T02:52:22;6.70;;;1.40;;
68910;SDS011;55953;51.650;-0.522;2023-03-04T02:54:52;7.70;;;1.70;;
68910;SDS011;55953;51.650;-0.522;2023-03-04T02:57:20;8.40;;;1.70;;
68910;SDS011;55953;51.650;-0.522;2023-03-04T02:59:51;7.20;;;1.60;;
68910;SDS011;55953;51.650;-0.522;2023-03-04T03:02:21;5.90;;;1.70;;
68910;SDS011;55953;51.650;-0.522;2023-03-04T03:04:50;6.50;;;1.40;;
68910;SDS011;55953;51.650;-0.522;2023-03-04T03:07:18;9.00;;;1.60;;
68910;SDS011;55953;51.650;-0.522;2023-03-04T03:09:47;5.00;;;1.30;;
68910;SDS011;55953;51.650;-0.522;2023-03-04T03:12:14;6.80;;;1.60;;
68910;SDS011;55953;51.650;-0.522;2023-03-04T03:14:43;5.50;;;1.20;;
68910;SDS011;55953;51.650;-0.522;2023-03-04T03:17:11;4.90;;;1.30;;
68910;SDS011;55953;51.650;-0.522;2023-03-04T03:19:39;4.40;;;1.00;;
68910;SDS011;55953;51.650;-0.522;2023-03-04T03:22:07;6.90;;;1.30;;
68910;SDS011;55953;51.650;-0.522;2023-03-04T03:24:35;6.70;;;1.10;;
68910;SDS011;55953;51.650;-0.522;2023-03-04T03:27:03;8.70;;;1.30;;
68910;SDS011;55953;51.650;-0.522;2023-03-04T03:29:31;4.00;;;1.10;;
68910;SDS011;55953;51.650;-0.522;2023-03-04T03:31:59;6.20;;;1.20;;
68910;SDS011;55953;51.650;-0.522;2023-03-04T03:34:27;9.30;;;1.50;;
68910;SDS011;55953;51.650;-0.522;2023-03-04T03:36:55;7.70;;;1.40;;
68910;SDS011;55953;51.650;-0.522;2023-03-04T03:39:23;8.00;;;1.40;;
68910;SDS011;55953;51.650;-0.522;2023-03-04T03:41:51;8.50;;;1.40;;
68910;SDS011;55953;51.650;-0.522;2023-03-04T03:44:19;4.80;;;1.30;;
68910;SDS011;55953;51.650;-0.522;2023-03-04T03:46:47;6.40;;;1.40;;
68910;SDS011;55953;51.650;-0.522;2023-03-04T03:49:14;7.50;;;1.60;;
68910;SDS011;55953;51.650;-0.522;2023-03-04T03:51:43;8.70;;;1.80;;
68910;SDS011;55953;51.650;-0.522;2023-03-04T03:54:11;4.80;;;1.60;;
68910;SDS011;55953;51.650;-0.522;2023-03-04T03:56:39;5.90;;;1.50;;
68910;SDS011;55953;51.650;-0.522;2023-03-04T03:59:07;7.60;;;1.50;;
68910;SDS011;55953;51.650;-0.522;2023-03-04T04:01:35;6.30;;;1.80;;
68910;SDS011;55953;51.650;-0.522;2023-03-04T04:04:03;7.30;;;1.90;;
68910;SDS011;55953;51.650;-0.522;2023-03-04T04:06:31;7.20;;;2.10;;
68910;SDS011;55953;51.650;-0.522;2023-03-04T04:08:59;10.50;;;2.00;;
68910;SDS011;55953;51.650;-0.522;2023-03-04T04:11:27;8.70;;;1.80;;
68910;SDS011;55953;51.650;-0.522;2023-03-04T04:13:55;6.90;;;1.70;;
68910;SDS011;55953;51.650;-0.522;2023-03-04T04:16:23;4.70;;;1.70;;
68910;SDS011;55953;51.650;-0.522;2023-03-04T04:18:51;5.30;;;1.80;;
68910;SDS011;55953;51.650;-0.522;2023-03-04T04:21:19;8.20;;;1.90;;
68910;SDS011;55953;51.650;-0.522;2023-03-04T04:23:47;8.40;;;2.00;;
68910;SDS011;55953;51.650;-0.522;2023-03-04T04:26:15;5.40;;;1.70;;
68910;SDS011;55953;51.650;-0.522;2023-03-04T04:28:43;7.50;;;1.90;;
68910;SDS011;55953;51.650;-0.522;2023-03-04T04:31:11;7.60;;;2.10;;
68910;SDS011;55953;51.650;-0.522;2023-03-04T04:33:39;3.90;;;1.40;;
68910;SDS011;55953;51.650;-0.522;2023-03-04T04:36:12;6.20;;;1.90;;
68910;SDS011;55953;51.650;-0.522;2023-03-04T04:38:42;5.90;;;1.90;;
68910;SDS011;55953;51.650;-0.522;2023-03-04T04:41:20;7.90;;;2.00;;
68910;SDS011;55953;51.650;-0.522;2023-03-04T04:46:19;3.40;;;1.70;;
68910;SDS011;55953;51.650;-0.522;2023-03-04T04:48:49;6.00;;;2.10;;
68910;SDS011;55953;51.650;-0.522;2023-03-04T04:51:17;5.30;;;2.20;;
68910;SDS011;55953;51.650;-0.522;2023-03-04T04:53:44;6.20;;;2.50;;
68910;SDS011;55953;51.650;-0.522;2023-03-04T04:56:16;7.80;;;2.00;;
68910;SDS011;55953;51.650;-0.522;2023-03-04T04:58:47;7.70;;;2.00;;
68910;SDS011;55953;51.650;-0.522;2023-03-04T05:01:15;5.10;;;1.60;;
68910;SDS011;55953;51.650;-0.522;2023-03-04T05:03:43;6.30;;;1.80;;
68910;SDS011;55953;51.650;-0.522;2023-03-04T05:06:12;6.90;;;1.80;;
68910;SDS011;55953;51.650;-0.522;2023-03-04T05:08:40;7.90;;;1.60;;
68910;SDS011;55953;51.650;-0.522;2023-03-04T05:11:08;7.50;;;2.00;;
68910;SDS011;55953;51.650;-0.522;2023-03-04T05:13:36;8.00;;;1.80;;
68910;SDS011;55953;51.650;-0.522;2023-03-04T05:16:04;6.40;;;1.90;;
68910;SDS011;55953;51.650;-0.522;2023-03-04T05:18:32;7.10;;;2.10;;
68910;SDS011;55953;51.650;-0.522;2023-03-04T05:21:02;5.10;;;1.70;;
68910;SDS011;55953;51.650;-0.522;2023-03-04T05:23:36;5.40;;;1.40;;
68910;SDS011;55953;51.650;-0.522;2023-03-04T05:26:09;3.90;;;1.40;;
68910;SDS011;55953;51.650;-0.522;2023-03-04T05:28:40;4.90;;;1.70;;
68910;SDS011;55953;51.650;-0.522;2023-03-04T05:31:09;8.10;;;2.00;;
68910;SDS011;55953;51.650;-0.522;2023-03-04T05:33:38;6.20;;;1.50;;
68910;SDS011;55953;51.650;-0.522;2023-03-04T05:36:06;5.70;;;1.50;;
68910;SDS011;55953;51.650;-0.522;2023-03-04T05:38:35;5.50;;;1.80;;
68910;SDS011;55953;51.650;-0.522;2023-03-04T05:41:05;6.60;;;1.90;;
68910;SDS011;55953;51.650;-0.522;2023-03-04T05:43:34;5.50;;;2.20;;
68910;SDS011;55953;51.650;-0.522;2023-03-04T05:46:03;8.90;;;2.70;;
68910;SDS011;55953;51.650;-0.522;2023-03-04T05:48:31;9.80;;;3.20;;
68910;SDS011;55953;51.650;-0.522;2023-03-04T05:51:00;5.70;;;2.70;;
68910;SDS011;55953;51.650;-0.522;2023-03-04T05:53:28;8.90;;;3.10;;
68910;SDS011;55953;51.650;-0.522;2023-03-04T05:55:56;8.80;;;3.10;;
68910;SDS011;55953;51.650;-0.522;2023-03-04T05:58:26;6.30;;;3.00;;
68910;SDS011;55953;51.650;-0.522;2023-03-04T06:00:54;5.70;;;2.60;;
68910;SDS011;55953;51.650;-0.522;2023-03-04T06:03:21;5.60;;;2.60;;
68910;SDS011;55953;51.650;-0.522;2023-03-04T06:05:49;7.50;;;2.50;;
68910;SDS011;55953;51.650;-0.522;2023-03-04T06:08:17;8.10;;;2.60;;
68910;SDS011;55953;51.650;-0.522;2023-03-04T06:10:45;6.90;;;2.70;;
68910;SDS011;55953;51.650;-0.522;2023-03-04T06:13:13;7.40;;;2.70;;
68910;SDS011;55953;51.650;-0.522;2023-03-04T06:15:41;6.80;;;2.40;;
68910;SDS011;55953;51.650;-0.522;2023-03-04T06:18:09;3.90;;;2.30;;
68910;SDS011;55953;51.650;-0.522;2023-03-04T06:20:37;5.80;;;1.90;;
68910;SDS011;55953;51.650;-0.522;2023-03-04T06:23:05;5.80;;;1.80;;
68910;SDS011;55953;51.650;-0.522;2023-03-04T06:25:33;9.20;;;2.20;;
68910;SDS011;55953;51.650;-0.522;2023-03-04T06:28:01;9.00;;;2.20;;
68910;SDS011;55953;51.650;-0.522;2023-03-04T06:30:29;7.50;;;2.00;;
68910;SDS011;55953;51.650;-0.522;2023-03-04T06:32:56;7.90;;;1.90;;
68910;SDS011;55953;51.650;-0.522;2023-03-04T06:35:24;6.30;;;2.00;;
68910;SDS011;55953;51.650;-0.522;2023-03-04T06:37:52;5.10;;;1.70;;
68910;SDS011;55953;51.650;-0.522;2023-03-04T06:40:20;5.50;;;1.90;;
68910;SDS011;55953;51.650;-0.522;2023-03-04T06:42:48;7.20;;;2.00;;
68910;SDS011;55953;51.650;-0.522;2023-03-04T06:45:16;5.10;;;1.70;;
68910;SDS011;55953;51.650;-0.522;2023-03-04T06:47:44;5.20;;;1.80;;
68910;SDS011;55953;51.650;-0.522;2023-03-04T06:50:12;5.60;;;1.90;;
68910;SDS011;55953;51.650;-0.522;2023-03-04T06:52:41;7.30;;;2.10;;
68910;SDS011;55953;51.650;-0.522;2023-03-04T06:55:09;6.10;;;2.10;;
68910;SDS011;55953;51.650;-0.522;2023-03-04T06:57:39;4.70;;;1.80;;
68910;SDS011;55953;51.650;-0.522;2023-03-04T07:00:08;5.10;;;1.60;;
68910;SDS011;55953;51.650;-0.522;2023-03-04T07:02:36;3.30;;;1.60;;
68910;SDS011;55953;51.650;-0.522;2023-03-04T07:05:04;6.20;;;1.80;;
68910;SDS011;55953;51.650;-0.522;2023-03-04T07:07:33;6.50;;;1.60;;
68910;SDS011;55953;51.650;-0.522;2023-03-04T07:10:00;6.00;;;2.00;;
68910;SDS011;55953;51.650;-0.522;2023-03-04T07:12:28;5.80;;;1.60;;
68910;SDS011;55953;51.650;-0.522;2023-03-04T07:14:56;5.70;;;1.80;;
68910;SDS011;55953;51.650;-0.522;2023-03-04T07:17:24;5.80;;;1.60;;
68910;SDS011;55953;51.650;-0.522;2023-03-04T07:19:52;3.70;;;1.80;;
68910;SDS011;55953;51.650;-0.522;2023-03-04T07:22:20;8.10;;;1.90;;
68910;SDS011;55953;51.650;-0.522;2023-03-04T07:24:48;8.20;;;1.90;;
68910;SDS011;55953;51.650;-0.522;2023-03-04T07:27:16;6.00;;;1.90;;
68910;SDS011;55953;51.650;-0.522;2023-03-04T07:29:44;5.20;;;1.60;;
68910;SDS011;55953;51.650;-0.522;2023-03-04T07:32:12;5.30;;;1.60;;
68910;SDS011;55953;51.650;-0.522;2023-03-04T07:34:40;8.70;;;1.70;;
68910;SDS011;55953;51.650;-0.522;2023-03-04T07:37:08;7.20;;;1.50;;
68910;SDS011;55953;51.650;-0.522;2023-03-04T07:39:36;3.10;;;1.40;;
68910;SDS011;55953;51.650;-0.522;2023-03-04T07:42:04;7.50;;;1.80;;
68910;SDS011;55953;51.650;-0.522;2023-03-04T07:44:38;6.00;;;1.40;;
68910;SDS011;55953;51.650;-0.522;2023-03-04T07:47:06;4.40;;;1.40;;
68910;SDS011;55953;51.650;-0.522;2023-03-04T07:49:34;6.20;;;1.50;;
68910;SDS011;55953;51.650;-0.522;2023-03-04T07:52:04;8.40;;;1.70;;
68910;SDS011;55953;51.650;-0.522;2023-03-04T07:54:32;6.10;;;1.60;;
68910;SDS011;55953;51.650;-0.522;2023-03-04T07:57:00;4.70;;;1.30;;
68910;SDS011;55953;51.650;-0.522;2023-03-04T07:59:28;6.70;;;1.60;;
68910;SDS011;55953;51.650;-0.522;2023-03-04T08:01:56;8.50;;;1.70;;
68910;SDS011;55953;51.650;-0.522;2023-03-04T08:04:24;4.40;;;1.50;;
68910;SDS011;55953;51.650;-0.522;2023-03-04T08:06:52;6.60;;;1.90;;
68910;SDS011;55953;51.650;-0.522;2023-03-04T08:09:21;5.50;;;1.80;;
68910;SDS011;55953;51.650;-0.522;2023-03-04T08:11:49;8.60;;;2.10;;
68910;SDS011;55953;51.650;-0.522;2023-03-04T08:14:17;4.60;;;1.90;;
68910;SDS011;55953;51.650;-0.522;2023-03-04T08:16:45;4.60;;;1.50;;
68910;SDS011;55953;51.650;-0.522;2023-03-04T08:19:13;6.40;;;2.10;;
68910;SDS011;55953;51.650;-0.522;2023-03-04T08:21:41;9.10;;;2.50;;
68910;SDS011;55953;51.650;-0.522;2023-03-04T08:24:10;4.70;;;1.70;;
68910;SDS011;55953;51.650;-0.522;2023-03-04T08:26:41;4.90;;;1.90;;
68910;SDS011;55953;51.650;-0.522;2023-03-04T08:29:17;14.50;;;2.40;;
68910;SDS011;55953;51.650;-0.522;2023-03-04T08:31:50;5.00;;;1.80;;
68910;SDS011;55953;51.650;-0.522;2023-03-04T08:34:23;4.80;;;1.90;;
68910;SDS011;55953;51.650;-0.522;2023-03-04T08:36:54;6.60;;;2.10;;
68910;SDS011;55953;51.650;-0.522;2023-03-04T08:39:22;6.80;;;2.30;;
68910;SDS011;55953;51.650;-0.522;2023-03-04T08:41:49;6.40;;;1.90;;
68910;SDS011;55953;51.650;-0.522;2023-03-04T08:44:17;6.50;;;2.30;;
68910;SDS011;55953;51.650;-0.522;2023-03-04T08:46:45;5.70;;;2.40;;
68910;SDS011;55953;51.650;-0.522;2023-03-04T08:49:13;10.00;;;2.90;;
68910;SDS011;55953;51.650;-0.522;2023-03-04T08:51:41;11.50;;;2.70;;
68910;SDS011;55953;51.650;-0.522;2023-03-04T08:54:09;6.40;;;2.50;;
68910;SDS011;55953;51.650;-0.522;2023-03-04T08:56:39;5.10;;;2.20;;
68910;SDS011;55953;51.650;-0.522;2023-03-04T08:59:08;6.50;;;2.30;;
68910;SDS011;55953;51.650;-0.522;2023-03-04T09:01:36;6.80;;;2.30;;
68910;SDS011;55953;51.650;-0.522;2023-03-04T09:04:04;6.70;;;2.10;;
68910;SDS011;55953;51.650;-0.522;2023-03-04T09:06:32;4.10;;;2.30;;
68910;SDS011;55953;51.650;-0.522;2023-03-04T09:09:00;5.90;;;2.20;;
68910;SDS011;55953;51.650;-0.522;2023-03-04T09:11:29;10.30;;;3.10;;
68910;SDS011;55953;51.650;-0.522;2023-03-04T09:13:57;8.10;;;2.70;;
68910;SDS011;55953;51.650;-0.522;2023-03-04T09:16:25;7.70;;;2.80;;
68910;SDS011;55953;51.650;-0.522;2023-03-04T09:18:53;8.10;;;2.60;;
68910;SDS011;55953;51.650;-0.522;2023-03-04T09:21:22;5.00;;;2.80;;
68910;SDS011;55953;51.650;-0.522;2023-03-04T09:23:49;9.10;;;2.80;;
68910;SDS011;55953;51.650;-0.522;2023-03-04T09:26:21;6.20;;;2.70;;
68910;SDS011;55953;51.650;-0.522;2023-03-04T09:28:53;8.60;;;2.80;;
68910;SDS011;55953;51.650;-0.522;2023-03-04T09:31:23;10.00;;;3.40;;
68910;SDS011;55953;51.650;-0.522;2023-03-04T09:33:53;8.60;;;3.20;;
68910;SDS011;55953;51.650;-0.522;2023-03-04T09:36:22;5.50;;;2.90;;
68910;SDS011;55953;51.650;-0.522;2023-03-04T09:38:50;7.50;;;3.50;;
68910;SDS011;55953;51.650;-0.522;2023-03-04T09:41:24;7.30;;;3.10;;
68910;SDS011;55953;51.650;-0.522;2023-03-04T09:43:57;6.20;;;3.10;;
68910;SDS011;55953;51.650;-0.522;2023-03-04T09:46:32;7.00;;;3.20;;
68910;SDS011;55953;51.650;-0.522;2023-03-04T09:49:05;6.50;;;2.70;;
68910;SDS011;55953;51.650;-0.522;2023-03-04T10:05:49;6.70;;;2.60;;
68910;SDS011;55953;51.650;-0.522;2023-03-04T10:11:34;7.10;;;2.50;;
68910;SDS011;55953;51.650;-0.522;2023-03-04T10:17:02;5.70;;;2.40;;
68910;SDS011;55953;51.650;-0.522;2023-03-04T10:19:53;6.80;;;2.50;;
68910;SDS011;55953;51.650;-0.522;2023-03-04T10:25:14;7.60;;;2.50;;
68910;SDS011;55953;51.650;-0.522;2023-03-04T10:27:58;7.30;;;2.70;;
68910;SDS011;55953;51.650;-0.522;2023-03-04T10:30:37;5.20;;;2.20;;
68910;SDS011;55953;51.650;-0.522;2023-03-04T10:33:15;7.30;;;2.60;;
68910;SDS011;55953;51.650;-0.522;2023-03-04T10:36:00;6.60;;;2.70;;
68910;SDS011;55953;51.650;-0.522;2023-03-04T10:38:43;7.60;;;2.80;;
68910;SDS011;55953;51.650;-0.522;2023-03-04T10:41:17;7.70;;;2.80;;
68910;SDS011;55953;51.650;-0.522;2023-03-04T10:44:00;7.30;;;2.60;;
68910;SDS011;55953;51.650;-0.522;2023-03-04T10:46:29;5.00;;;2.40;;
68910;SDS011;55953;51.650;-0.522;2023-03-04T10:48:58;7.80;;;2.20;;
68910;SDS011;55953;51.650;-0.522;2023-03-04T10:51:28;7.10;;;2.00;;
68910;SDS011;55953;51.650;-0.522;2023-03-04T10:54:05;6.70;;;2.20;;
68910;SDS011;55953;51.650;-0.522;2023-03-04T10:56:52;7.00;;;2.70;;
68910;SDS011;55953;51.650;-0.522;2023-03-04T10:59:43;7.70;;;2.60;;
68910;SDS011;55953;51.650;-0.522;2023-03-04T11:04:50;6.60;;;2.20;;
68910;SDS011;55953;51.650;-0.522;2023-03-04T11:07:24;4.90;;;2.10;;
68910;SDS011;55953;51.650;-0.522;2023-03-04T11:09:53;6.30;;;2.30;;
68910;SDS011;55953;51.650;-0.522;2023-03-04T11:12:32;6.30;;;2.40;;
68910;SDS011;55953;51.650;-0.522;2023-03-04T11:15:02;6.90;;;2.50;;
68910;SDS011;55953;51.650;-0.522;2023-03-04T11:17:44;3.80;;;2.00;;
68910;SDS011;55953;51.650;-0.522;2023-03-04T11:20:49;5.10;;;2.30;;
68910;SDS011;55953;51.650;-0.522;2023-03-04T11:23:34;4.20;;;1.80;;
68910;SDS011;55953;51.650;-0.522;2023-03-04T11:26:16;8.60;;;2.00;;
68910;SDS011;55953;51.650;-0.522;2023-03-04T11:31:45;4.10;;;2.00;;
68910;SDS011;55953;51.650;-0.522;2023-03-04T11:34:36;5.60;;;1.50;;
68910;SDS011;55953;51.650;-0.522;2023-03-04T11:37:30;4.80;;;1.90;;
68910;SDS011;55953;51.650;-0.522;2023-03-04T11:40:09;4.10;;;1.90;;
68910;SDS011;55953;51.650;-0.522;2023-03-04T11:42:46;4.20;;;1.60;;
68910;SDS011;55953;51.650;-0.522;2023-03-04T11:56:49;6.90;;;2.10;;
68910;SDS011;55953;51.650;-0.522;2023-03-04T12:02:14;8.10;;;2.20;;
68910;SDS011;55953;51.650;-0.522;2023-03-04T12:11:28;5.30;;;2.70;;
68910;SDS011;55953;51.650;-0.522;2023-03-04T12:14:29;6.50;;;2.10;;
68910;SDS011;55953;51.650;-0.522;2023-03-04T12:22:58;6.30;;;2.10;;
68910;SDS011;55953;51.650;-0.522;2023-03-04T12:34:26;6.30;;;1.90;;
68910;SDS011;55953;51.650;-0.522;2023-03-04T12:37:16;7.70;;;2.10;;
68910;SDS011;55953;51.650;-0.522;2023-03-04T12:55:01;5.20;;;1.90;;
68910;SDS011;55953;51.650;-0.522;2023-03-04T12:57:35;4.70;;;1.90;;
68910;SDS011;55953;51.650;-0.522;2023-03-04T13:00:21;4.50;;;1.80;;
68910;SDS011;55953;51.650;-0.522;2023-03-04T13:03:10;4.60;;;2.00;;
68910;SDS011;55953;51.650;-0.522;2023-03-04T13:16:53;4.00;;;1.80;;
68910;SDS011;55953;51.650;-0.522;2023-03-04T13:22:41;2.30;;;1.50;;
68910;SDS011;55953;51.650;-0.522;2023-03-04T13:25:44;4.40;;;1.30;;
68910;SDS011;55953;51.650;-0.522;2023-03-04T13:28:22;4.60;;;1.50;;
68910;SDS011;55953;51.650;-0.522;2023-03-04T13:36:26;4.80;;;1.80;;
68910;SDS011;55953;51.650;-0.522;2023-03-04T13:39:01;10.30;;;5.00;;
68910;SDS011;55953;51.650;-0.522;2023-03-04T13:41:51;4.40;;;2.10;;
68910;SDS011;55953;51.650;-0.522;2023-03-04T13:47:16;5.30;;;1.80;;
68910;SDS011;55953;51.650;-0.522;2023-03-04T13:49:46;4.30;;;1.60;;
68910;SDS011;55953;51.650;-0.522;2023-03-04T13:55:37;3.10;;;1.60;;
68910;SDS011;55953;51.650;-0.522;2023-03-04T13:58:17;5.70;;;1.90;;
68910;SDS011;55953;51.650;-0.522;2023-03-04T14:00:51;3.70;;;1.70;;
68910;SDS011;55953;51.650;-0.522;2023-03-04T14:06:17;4.10;;;1.70;;
68910;SDS011;55953;51.650;-0.522;2023-03-04T14:08:48;3.20;;;1.80;;
68910;SDS011;55953;51.650;-0.522;2023-03-04T14:13:59;4.70;;;2.10;;
68910;SDS011;55953;51.650;-0.522;2023-03-04T14:16:37;5.40;;;2.30;;
68910;SDS011;55953;51.650;-0.522;2023-03-04T14:19:14;7.90;;;2.40;;
68910;SDS011;55953;51.650;-0.522;2023-03-04T14:21:45;5.80;;;1.90;;
68910;SDS011;55953;51.650;-0.522;2023-03-04T14:24:16;4.60;;;2.20;;
68910;SDS011;55953;51.650;-0.522;2023-03-04T14:26:47;5.20;;;2.50;;
68910;SDS011;55953;51.650;-0.522;2023-03-04T14:29:27;6.90;;;3.20;;
68910;SDS011;55953;51.650;-0.522;2023-03-04T14:31:58;8.50;;;2.80;;
68910;SDS011;55953;51.650;-0.522;2023-03-04T14:34:30;8.30;;;2.80;;
68910;SDS011;55953;51.650;-0.522;2023-03-04T14:37:14;5.00;;;2.30;;
68910;SDS011;55953;51.650;-0.522;2023-03-04T14:39:49;5.20;;;2.40;;
68910;SDS011;55953;51.650;-0.522;2023-03-04T14:42:25;5.80;;;2.20;;
68910;SDS011;55953;51.650;-0.522;2023-03-04T14:45:03;5.60;;;2.10;;
68910;SDS011;55953;51.650;-0.522;2023-03-04T14:47:36;7.80;;;2.90;;
68910;SDS011;55953;51.650;-0.522;2023-03-04T14:50:17;9.80;;;3.80;;
68910;SDS011;55953;51.650;-0.522;2023-03-04T14:52:48;11.50;;;4.60;;
68910;SDS011;55953;51.650;-0.522;2023-03-04T14:55:24;8.40;;;3.50;;
68910;SDS011;55953;51.650;-0.522;2023-03-04T14:58:22;4.80;;;2.30;;
68910;SDS011;55953;51.650;-0.522;2023-03-04T15:01:16;6.00;;;2.40;;
68910;SDS011;55953;51.650;-0.522;2023-03-04T15:03:58;7.80;;;2.80;;
68910;SDS011;55953;51.650;-0.522;2023-03-04T15:06:32;6.10;;;2.60;;
68910;SDS011;55953;51.650;-0.522;2023-03-04T15:11:48;6.50;;;2.50;;
68910;SDS011;55953;51.650;-0.522;2023-03-04T15:25:20;5.80;;;3.40;;
68910;SDS011;55953;51.650;-0.522;2023-03-04T15:27:49;6.70;;;3.30;;
68910;SDS011;55953;51.650;-0.522;2023-03-04T15:32:59;7.50;;;3.80;;
68910;SDS011;55953;51.650;-0.522;2023-03-04T15:35:30;7.40;;;3.60;;
68910;SDS011;55953;51.650;-0.522;2023-03-04T15:37:59;7.30;;;3.20;;
68910;SDS011;55953;51.650;-0.522;2023-03-04T15:40:32;6.30;;;2.90;;
68910;SDS011;55953;51.650;-0.522;2023-03-04T15:43:03;10.50;;;4.60;;
68910;SDS011;55953;51.650;-0.522;2023-03-04T15:45:34;6.20;;;2.80;;
68910;SDS011;55953;51.650;-0.522;2023-03-04T15:48:06;6.80;;;3.70;;
68910;SDS011;55953;51.650;-0.522;2023-03-04T15:50:42;9.10;;;5.00;;
68910;SDS011;55953;51.650;-0.522;2023-03-04T15:53:24;7.20;;;4.30;;
68910;SDS011;55953;51.650;-0.522;2023-03-04T15:55:53;6.20;;;3.10;;
68910;SDS011;55953;51.650;-0.522;2023-03-04T15:58:21;6.30;;;2.70;;
68910;SDS011;55953;51.650;-0.522;2023-03-04T16:00:49;6.50;;;2.80;;
68910;SDS011;55953;51.650;-0.522;2023-03-04T16:03:19;6.50;;;2.60;;
68910;SDS011;55953;51.650;-0.522;2023-03-04T16:05:50;8.60;;;2.60;;
68910;SDS011;55953;51.650;-0.522;2023-03-04T16:08:20;6.60;;;2.80;;
68910;SDS011;55953;51.650;-0.522;2023-03-04T16:10:52;10.00;;;3.80;;
68910;SDS011;55953;51.650;-0.522;2023-03-04T16:13:22;10.20;;;3.60;;
68910;SDS011;55953;51.650;-0.522;2023-03-04T16:15:51;7.70;;;2.80;;
68910;SDS011;55953;51.650;-0.522;2023-03-04T16:18:19;7.50;;;2.80;;
68910;SDS011;55953;51.650;-0.522;2023-03-04T16:20:47;6.60;;;2.90;;
68910;SDS011;55953;51.650;-0.522;2023-03-04T16:23:22;7.40;;;2.90;;
68910;SDS011;55953;51.650;-0.522;2023-03-04T16:25:54;6.70;;;2.50;;
68910;SDS011;55953;51.650;-0.522;2023-03-04T16:28:23;7.00;;;3.40;;
68910;SDS011;55953;51.650;-0.522;2023-03-04T16:30:51;5.40;;;2.90;;
68910;SDS011;55953;51.650;-0.522;2023-03-04T16:33:18;5.10;;;2.60;;
68910;SDS011;55953;51.650;-0.522;2023-03-04T16:35:46;4.80;;;2.90;;
68910;SDS011;55953;51.650;-0.522;2023-03-04T16:38:26;5.60;;;2.40;;
68910;SDS011;55953;51.650;-0.522;2023-03-04T16:41:00;6.40;;;3.40;;
68910;SDS011;55953;51.650;-0.522;2023-03-04T16:43:28;6.40;;;2.90;;
68910;SDS011;55953;51.650;-0.522;2023-03-04T16:45:56;6.00;;;2.90;;
68910;SDS011;55953;51.650;-0.522;2023-03-04T16:48:24;5.80;;;2.90;;
68910;SDS011;55953;51.650;-0.522;2023-03-04T16:50:52;5.00;;;2.90;;
68910;SDS011;55953;51.650;-0.522;2023-03-04T16:53:31;6.40;;;3.60;;
68910;SDS011;55953;51.650;-0.522;2023-03-04T16:56:11;6.20;;;2.70;;
68910;SDS011;55953;51.650;-0.522;2023-03-04T16:58:41;5.10;;;2.70;;
68910;SDS011;55953;51.650;-0.522;2023-03-04T17:01:18;7.50;;;3.00;;
68910;SDS011;55953;51.650;-0.522;2023-03-04T17:03:48;6.40;;;3.10;;
68910;SDS011;55953;51.650;-0.522;2023-03-04T17:06:16;5.30;;;2.60;;